Terminal Aerodrome Forecast
Issued by NWS

Home | Current Version | Previous Version | Text Only | Print | Product List | Glossary Off
Versions: 1 2 3 4 5 6 7 8 9 10 11 12 13 14 15 16 17 18 19 20

528
FTUS43 KMPX 140915 AAB
TAFRNH
TAF AMD
KRNH 140915Z 1409/1506 VRB03KT P6SM BKN012 OVC035
     FM141600 29005KT P6SM OVC015
     FM141900 28007KT 5SM -SN OVC015
     FM150100 29007KT P6SM OVC020=

USA.gov is the U.S. government's official web portal to all federal, state and local government web resources and services.